createdAt,value
2023-02-08T00:00:09.955Z,-4.24
2023-02-08T00:01:14.966Z,-4.13
2023-02-08T00:02:18.371Z,-3.94
2023-02-08T00:03:22.156Z,-3.85
2023-02-08T00:04:26.274Z,-3.70
2023-02-08T00:05:28.940Z,-3.74
2023-02-08T00:06:31.004Z,-4.15
2023-02-08T00:07:33.758Z,-4.33
2023-02-08T00:08:36.222Z,-4.75
2023-02-08T00:09:38.922Z,-4.89
2023-02-08T00:10:40.927Z,-5.31
2023-02-08T00:11:43.736Z,-5.55
2023-02-08T00:12:45.439Z,-5.53
2023-02-08T00:13:48.073Z,-5.84
2023-02-08T00:14:49.828Z,-5.96
2023-02-08T00:15:54.614Z,-6.06
2023-02-08T00:16:56.330Z,-5.79
2023-02-08T00:18:00.497Z,-5.73
2023-02-08T00:19:02.137Z,-5.56
2023-02-08T00:20:05.346Z,-5.17
2023-02-08T00:21:09.075Z,-4.95
2023-02-08T00:22:11.877Z,-4.71
2023-02-08T00:23:14.595Z,-4.42
2023-02-08T00:24:17.566Z,-4.29
2023-02-08T00:25:19.299Z,-4.18
2023-02-08T00:26:21.967Z,-4.09
2023-02-08T00:27:23.736Z,-4.00
2023-02-08T00:28:26.575Z,-4.00
2023-02-08T00:29:28.287Z,-3.78
2023-02-08T00:30:30.967Z,-3.73
2023-02-08T00:31:32.755Z,-3.70
2023-02-08T00:32:35.878Z,-3.90
2023-02-08T00:33:39.873Z,-3.72
2023-02-08T00:34:41.695Z,-3.70
2023-02-08T00:35:44.397Z,-3.75
2023-02-08T00:36:46.094Z,-3.71
2023-02-08T00:37:48.711Z,-3.57
2023-02-08T00:38:50.505Z,-3.61
2023-02-08T00:39:53.432Z,-3.85
2023-02-08T00:40:55.306Z,-3.92
2023-02-08T00:41:57.966Z,-3.76
2023-02-08T00:42:59.562Z,-3.72
2023-02-08T00:44:02.604Z,-3.73
2023-02-08T00:45:05.070Z,-3.82
2023-02-08T00:46:08.180Z,-3.74
2023-02-08T00:47:09.866Z,-3.73
2023-02-08T00:48:12.542Z,-3.82
2023-02-08T00:49:16.330Z,-3.71
2023-02-08T00:50:18.973Z,-3.59
2023-02-08T00:51:20.736Z,-4.04
2023-02-08T00:52:23.477Z,-4.16
2023-02-08T00:53:25.346Z,-3.93
2023-02-08T00:54:28.060Z,-4.12
2023-02-08T00:55:29.870Z,-4.13
2023-02-08T00:56:32.785Z,-4.30
2023-02-08T00:57:35.753Z,-4.32
2023-02-08T00:58:39.171Z,-4.23
2023-02-08T00:59:40.819Z,-4.60
2023-02-08T01:00:43.482Z,-4.35
2023-02-08T01:01:45.695Z,-4.43
2023-02-08T01:02:48.305Z,-4.51
2023-02-08T01:03:49.958Z,-4.85
2023-02-08T01:04:53.896Z,-4.61
2023-02-08T01:06:00.799Z,-4.93
2023-02-08T01:07:03.495Z,-4.81
2023-02-08T01:08:07.992Z,-4.61
2023-02-08T01:09:10.615Z,-5.07
2023-02-08T01:10:12.903Z,-4.82
2023-02-08T01:11:18.737Z,-5.28
2023-02-08T01:12:20.380Z,-5.28
2023-02-08T01:13:23.139Z,-5.02
2023-02-08T01:14:25.529Z,-4.71
2023-02-08T01:15:28.545Z,-4.47
2023-02-08T01:16:32.326Z,-4.18
2023-02-08T01:17:35.152Z,-4.24
2023-02-08T01:18:37.638Z,-4.41
2023-02-08T01:19:42.600Z,-4.31
2023-02-08T01:20:45.806Z,-4.27
2023-02-08T01:21:49.211Z,-4.16
2023-02-08T01:22:50.987Z,-4.26
2023-02-08T01:23:53.862Z,-4.20
2023-02-08T01:24:55.529Z,-4.21
2023-02-08T01:25:58.176Z,-4.60
2023-02-08T01:27:01.225Z,-4.43
2023-02-08T01:28:02.907Z,-4.33
2023-02-08T01:29:05.814Z,-4.34
2023-02-08T01:30:09.444Z,-4.52
2023-02-08T01:31:14.485Z,-4.69
2023-02-08T01:32:17.233Z,-4.87
2023-02-08T01:33:18.965Z,-4.69
2023-02-08T01:34:21.841Z,-4.88
2023-02-08T01:35:26.629Z,-4.84
2023-02-08T01:36:32.356Z,-5.48
2023-02-08T01:37:36.911Z,-5.72
2023-02-08T01:38:40.277Z,-5.89
2023-02-08T01:39:41.818Z,-5.62
2023-02-08T01:40:44.445Z,-5.68
2023-02-08T01:41:47.134Z,-5.95
2023-02-08T01:42:49.768Z,-5.65
2023-02-08T01:44:43.246Z,-5.91
2023-02-08T01:45:44.928Z,-5.66
2023-02-08T01:46:51.208Z,-5.92
2023-02-08T01:47:56.709Z,-6.09
2023-02-08T01:49:03.430Z,-5.90
2023-02-08T01:50:05.545Z,-6.21
2023-02-08T01:51:13.565Z,-5.99
2023-02-08T01:52:20.550Z,-6.31
2023-02-08T01:53:26.791Z,-6.37
2023-02-08T01:54:32.716Z,-6.65
2023-02-08T01:55:39.822Z,-6.53
2023-02-08T01:56:46.002Z,-6.70
2023-02-08T01:57:52.725Z,-6.63
2023-02-08T01:59:00.992Z,-6.59
2023-02-08T02:00:08.595Z,-6.51
2023-02-08T02:01:14.572Z,-6.63
2023-02-08T02:02:20.905Z,-6.58
2023-02-08T02:03:23.886Z,-6.02
2023-02-08T02:04:27.316Z,-5.65
2023-02-08T02:05:34.410Z,-5.69
2023-02-08T02:06:40.282Z,-5.45
2023-02-08T02:07:43.943Z,-5.93
2023-02-08T02:08:52.854Z,-5.73
2023-02-08T02:10:03.143Z,-5.44
2023-02-08T02:11:06.042Z,-5.62
2023-02-08T02:12:09.108Z,-5.71
2023-02-08T02:13:14.820Z,-5.39
2023-02-08T02:14:17.135Z,-5.14
2023-02-08T02:15:19.901Z,-4.83
2023-02-08T02:16:21.862Z,-4.77
2023-02-08T02:17:24.729Z,-4.75
2023-02-08T02:18:29.178Z,-4.72
2023-02-08T02:19:41.232Z,-5.55
2023-02-08T02:21:02.651Z,-5.79
2023-02-08T02:22:20.860Z,-5.83
2023-02-08T02:24:08.501Z,-5.79
2023-02-08T02:25:43.904Z,-5.21
2023-02-08T02:27:15.044Z,-4.96
2023-02-08T02:28:44.424Z,-4.92
2023-02-08T02:30:10.236Z,-5.17
2023-02-08T02:31:31.221Z,-6.07
2023-02-08T02:32:46.148Z,-5.84
2023-02-08T02:33:59.356Z,-5.95
2023-02-08T02:35:08.161Z,-5.90
2023-02-08T02:36:20.063Z,-5.59
2023-02-08T02:37:32.124Z,-5.84
2023-02-08T02:38:46.435Z,-5.52
2023-02-08T02:39:59.011Z,-5.23
2023-02-08T02:41:14.383Z,-5.14
2023-02-08T02:42:46.210Z,-4.94
2023-02-08T02:43:54.238Z,-4.64
2023-02-08T02:45:11.512Z,-4.54
2023-02-08T02:46:22.706Z,-4.69
2023-02-08T02:47:42.598Z,-4.50
2023-02-08T02:48:50.506Z,-4.43
2023-02-08T02:49:58.589Z,-4.40
2023-02-08T02:51:07.208Z,-4.34
2023-02-08T02:52:16.080Z,-4.42
2023-02-08T02:53:23.697Z,-4.57
2023-02-08T02:54:33.251Z,-4.65
2023-02-08T02:55:44.220Z,-4.66
2023-02-08T02:56:50.004Z,-4.60
2023-02-08T02:57:55.164Z,-4.56
2023-02-08T02:59:03.024Z,-4.88
2023-02-08T03:00:08.606Z,-4.91
2023-02-08T03:01:11.344Z,-4.75
2023-02-08T03:02:14.145Z,-5.07
2023-02-08T03:03:22.365Z,-4.89
2023-02-08T03:04:50.161Z,-4.70
2023-02-08T03:05:55.447Z,-4.63
2023-02-08T03:07:06.469Z,-4.93
2023-02-08T03:08:27.907Z,-5.00
2023-02-08T03:09:47.786Z,-4.96
2023-02-08T03:11:02.006Z,-4.87
2023-02-08T03:12:16.858Z,-5.57
2023-02-08T03:13:28.439Z,-5.28
2023-02-08T03:14:39.353Z,-5.17
2023-02-08T03:15:52.880Z,-5.63
2023-02-08T03:17:35.237Z,-5.42
2023-02-08T03:18:51.750Z,-5.29
2023-02-08T03:20:05.296Z,-5.41
2023-02-08T03:21:11.601Z,-5.50
2023-02-08T03:22:17.630Z,-5.92
2023-02-08T03:23:24.453Z,-5.75
2023-02-08T03:24:33.967Z,-5.57
2023-02-08T03:25:45.636Z,-5.45
2023-02-08T03:26:54.253Z,-5.29
2023-02-08T03:28:06.440Z,-5.20
2023-02-08T03:29:17.994Z,-5.23
2023-02-08T03:30:29.298Z,-5.70
2023-02-08T03:31:38.400Z,-6.09
2023-02-08T03:32:44.751Z,-6.18
2023-02-08T03:33:53.299Z,-6.12
2023-02-08T03:35:01.944Z,-5.94
2023-02-08T03:36:07.933Z,-6.20
2023-02-08T03:37:15.913Z,-5.90
2023-02-08T03:38:22.812Z,-6.46
2023-02-08T03:39:28.814Z,-6.44
2023-02-08T03:40:36.237Z,-6.04
2023-02-08T03:41:43.064Z,-5.72
2023-02-08T03:42:48.879Z,-5.41
2023-02-08T03:43:54.810Z,-5.42
2023-02-08T03:45:02.673Z,-5.52
2023-02-08T03:46:11.014Z,-5.38
2023-02-08T03:47:18.590Z,-5.31
2023-02-08T03:48:25.428Z,-5.11
2023-02-08T03:49:38.410Z,-4.89
2023-02-08T03:50:42.898Z,-4.95
2023-02-08T03:51:47.493Z,-5.26
2023-02-08T03:52:52.813Z,-4.99
2023-02-08T03:53:57.615Z,-5.15
2023-02-08T03:55:05.144Z,-5.78
2023-02-08T03:56:11.044Z,-6.37
2023-02-08T03:57:18.918Z,-6.21
2023-02-08T03:58:26.595Z,-6.16
2023-02-08T03:59:33.577Z,-6.18
2023-02-08T04:00:39.990Z,-6.32
2023-02-08T04:01:44.854Z,-6.64
2023-02-08T04:02:57.470Z,-6.48
2023-02-08T04:04:00.913Z,-6.48
2023-02-08T04:05:06.391Z,-6.55
2023-02-08T04:06:07.998Z,-7.02
2023-02-08T04:07:11.143Z,-6.78
2023-02-08T04:08:12.820Z,-6.59
2023-02-08T04:09:15.875Z,-6.28
2023-02-08T04:10:17.916Z,-5.87
2023-02-08T04:11:20.811Z,-5.66
2023-02-08T04:12:22.492Z,-5.40
2023-02-08T04:13:24.991Z,-5.20
2023-02-08T04:14:26.615Z,-4.99
2023-02-08T04:15:29.312Z,-4.78
2023-02-08T04:16:31.082Z,-4.85
2023-02-08T04:17:33.895Z,-4.81
2023-02-08T04:18:35.432Z,-5.10
2023-02-08T04:19:39.718Z,-4.97
2023-02-08T04:20:42.766Z,-4.78
2023-02-08T04:21:45.416Z,-4.74
2023-02-08T04:22:46.988Z,-5.39
2023-02-08T04:23:49.496Z,-5.22
2023-02-08T04:24:51.019Z,-5.58
2023-02-08T04:25:56.884Z,-5.57
2023-02-08T04:26:58.539Z,-5.77
2023-02-08T04:28:01.380Z,-5.60
2023-02-08T04:29:03.238Z,-6.20
2023-02-08T04:30:06.787Z,-6.54
2023-02-08T04:31:08.498Z,-6.21
2023-02-08T04:32:11.916Z,-6.09
2023-02-08T04:33:14.980Z,-5.95
2023-02-08T04:34:17.522Z,-5.71
2023-02-08T04:35:19.194Z,-5.60
2023-02-08T04:36:23.281Z,-5.82
2023-02-08T04:37:24.928Z,-5.89
2023-02-08T04:38:27.681Z,-5.60
2023-02-08T04:39:29.573Z,-5.36
2023-02-08T04:40:32.675Z,-6.46
2023-02-08T04:41:34.235Z,-6.77
2023-02-08T04:42:36.819Z,-7.15
2023-02-08T04:43:38.413Z,-7.04
2023-02-08T04:44:41.028Z,-7.06
2023-02-08T04:45:42.708Z,-6.64
2023-02-08T04:46:45.540Z,-6.37
2023-02-08T04:47:47.267Z,-6.17
2023-02-08T04:48:49.865Z,-5.98
2023-02-08T04:49:51.551Z,-5.75
2023-02-08T04:50:56.393Z,-6.09
2023-02-08T04:51:59.398Z,-6.08
2023-02-08T04:53:02.000Z,-5.82
2023-02-08T04:54:03.560Z,-5.84
2023-02-08T04:55:06.910Z,-5.97
2023-02-08T04:56:08.614Z,-5.78
2023-02-08T04:57:13.574Z,-5.79
2023-02-08T04:58:15.230Z,-5.68
2023-02-08T04:59:18.410Z,-5.57
2023-02-08T05:00:20.105Z,-5.55
2023-02-08T05:01:22.698Z,-5.59
2023-02-08T05:02:24.232Z,-5.51
2023-02-08T05:03:26.714Z,-5.37
2023-02-08T05:04:28.389Z,-5.31
2023-02-08T05:05:31.861Z,-5.18
2023-02-08T05:06:33.847Z,-5.08
2023-02-08T05:07:37.893Z,-5.02
2023-02-08T05:08:39.429Z,-4.94
2023-02-08T05:09:42.190Z,-5.21
2023-02-08T05:10:45.409Z,-5.39
2023-02-08T05:11:47.917Z,-5.24
2023-02-08T05:12:49.473Z,-5.17
2023-02-08T05:13:52.824Z,-5.09
2023-02-08T05:14:54.480Z,-5.16
2023-02-08T05:15:57.084Z,-5.03
2023-02-08T05:16:58.765Z,-5.13
2023-02-08T05:18:04.284Z,-4.92
2023-02-08T05:19:06.828Z,-4.95
2023-02-08T05:20:10.027Z,-4.91
2023-02-08T05:21:12.960Z,-4.90
2023-02-08T05:22:14.630Z,-4.88
2023-02-08T05:23:18.628Z,-4.86
2023-02-08T05:24:20.235Z,-4.98
2023-02-08T05:25:23.137Z,-5.24
2023-02-08T05:26:24.783Z,-5.61
2023-02-08T05:27:27.521Z,-5.65
2023-02-08T05:28:29.139Z,-6.15
2023-02-08T05:29:33.445Z,-6.42
2023-02-08T05:30:35.067Z,-6.29
2023-02-08T05:31:37.966Z,-6.99
2023-02-08T05:32:39.710Z,-6.88
2023-02-08T05:33:42.465Z,-6.58
2023-02-08T05:34:44.391Z,-6.65
2023-02-08T05:35:47.373Z,-7.06
2023-02-08T05:36:48.986Z,-7.33
2023-02-08T05:37:51.543Z,-7.25
2023-02-08T05:38:54.766Z,-7.25
2023-02-08T05:39:57.243Z,-6.80
2023-02-08T05:41:01.696Z,-6.30
2023-02-08T05:42:04.810Z,-5.94
2023-02-08T05:43:06.429Z,-6.03
2023-02-08T05:44:08.997Z,-6.20
2023-02-08T05:45:10.670Z,-6.46
2023-02-08T05:46:13.216Z,-6.83
2023-02-08T05:47:18.614Z,-6.77
2023-02-08T05:48:20.495Z,-6.54
2023-02-08T05:49:23.183Z,-6.61
2023-02-08T05:50:24.884Z,-6.83
2023-02-08T05:51:27.891Z,-6.88
2023-02-08T05:52:29.509Z,-6.53
2023-02-08T05:53:32.381Z,-6.52
2023-02-08T05:54:35.660Z,-6.39
2023-02-08T05:55:38.309Z,-6.46
2023-02-08T05:56:39.829Z,-6.29
2023-02-08T05:57:42.372Z,-6.21
2023-02-08T05:58:43.983Z,-6.20
2023-02-08T05:59:46.642Z,-6.53
2023-02-08T06:00:48.399Z,-6.76
2023-02-08T06:01:51.264Z,-6.70
2023-02-08T06:02:53.114Z,-7.02
2023-02-08T06:03:55.794Z,-7.00
2023-02-08T06:04:58.310Z,-6.58
2023-02-08T06:06:00.826Z,-6.48
2023-02-08T06:07:03.428Z,-6.55
2023-02-08T06:08:05.929Z,-6.59
2023-02-08T06:09:08.429Z,-6.27
2023-02-08T06:10:11.738Z,-5.97
2023-02-08T06:11:14.543Z,-5.79
2023-02-08T06:12:16.082Z,-5.75
2023-02-08T06:13:18.594Z,-5.50
2023-02-08T06:14:20.491Z,-5.90
2023-02-08T06:15:23.224Z,-5.81
2023-02-08T06:16:28.705Z,-6.61
2023-02-08T06:17:30.264Z,-7.01
2023-02-08T06:18:32.937Z,-7.13
2023-02-08T06:19:34.506Z,-6.95
2023-02-08T06:20:37.073Z,-6.61
2023-02-08T06:21:39.627Z,-6.22
2023-02-08T06:22:42.268Z,-6.11
2023-02-08T06:23:44.901Z,-5.75
2023-02-08T06:24:47.832Z,-5.55
2023-02-08T06:25:52.655Z,-5.37
2023-02-08T06:26:54.309Z,-5.68
2023-02-08T06:27:57.575Z,-5.47
2023-02-08T06:28:59.302Z,-5.32
2023-02-08T06:30:01.800Z,-5.27
2023-02-08T06:31:03.811Z,-5.26
2023-02-08T06:32:06.962Z,-5.10
2023-02-08T06:33:08.641Z,-5.20
2023-02-08T06:34:11.264Z,-5.19
2023-02-08T06:35:14.074Z,-5.25
2023-02-08T06:36:15.749Z,-4.92
2023-02-08T06:37:18.911Z,-4.78
2023-02-08T06:38:20.754Z,-4.69
2023-02-08T06:39:23.802Z,-5.01
2023-02-08T06:40:25.586Z,-5.10
2023-02-08T06:41:29.529Z,-5.64
2023-02-08T06:42:32.059Z,-6.10
2023-02-08T06:43:33.756Z,-5.79
2023-02-08T06:44:36.526Z,-5.90
2023-02-08T06:45:39.179Z,-6.08
2023-02-08T06:46:41.909Z,-6.17
2023-02-08T06:47:43.739Z,-6.05
2023-02-08T06:48:46.364Z,-6.14
2023-02-08T06:49:48.983Z,-6.20
2023-02-08T06:50:52.296Z,-6.30
2023-02-08T06:51:55.043Z,-6.76
2023-02-08T06:52:57.842Z,-6.72
2023-02-08T06:53:59.522Z,-6.80
2023-02-08T06:55:02.090Z,-6.91
2023-02-08T06:56:03.995Z,-7.02
2023-02-08T06:57:08.406Z,-6.82
2023-02-08T06:58:11.222Z,-6.90
2023-02-08T06:59:13.817Z,-6.62
2023-02-08T07:00:16.781Z,-6.66
2023-02-08T07:01:20.442Z,-6.62
2023-02-08T07:02:23.363Z,-6.48
2023-02-08T07:03:24.894Z,-6.55
2023-02-08T07:04:27.531Z,-6.24
2023-02-08T07:05:30.116Z,-6.30
2023-02-08T07:06:32.984Z,-6.31
2023-02-08T07:07:34.622Z,-6.55
2023-02-08T07:08:37.199Z,-6.99
2023-02-08T07:09:39.954Z,-7.23
2023-02-08T07:10:41.792Z,-7.22
2023-02-08T07:11:47.446Z,-7.08
2023-02-08T07:12:51.285Z,-6.83
2023-02-08T07:13:54.497Z,-6.83
2023-02-08T07:14:57.084Z,-7.11
2023-02-08T07:15:58.713Z,-7.08
2023-02-08T07:17:01.487Z,-7.31
2023-02-08T07:18:04.375Z,-7.31
2023-02-08T07:19:08.058Z,-7.28
2023-02-08T07:20:14.320Z,-7.15
2023-02-08T07:21:16.150Z,-6.93
2023-02-08T07:22:18.844Z,-6.91
2023-02-08T07:23:20.408Z,-7.13
2023-02-08T07:24:23.473Z,-7.64
2023-02-08T07:25:26.251Z,-7.63
2023-02-08T07:26:28.915Z,-7.43
2023-02-08T07:27:30.517Z,-7.44
2023-02-08T07:28:34.634Z,-7.22
2023-02-08T07:29:37.876Z,-6.71
2023-02-08T07:30:40.962Z,-6.79
2023-02-08T07:31:43.838Z,-6.80
2023-02-08T07:32:45.526Z,-6.91
2023-02-08T07:33:48.088Z,-6.61
2023-02-08T07:34:50.803Z,-6.20
2023-02-08T07:35:53.627Z,-6.37
2023-02-08T07:36:56.335Z,-6.41
2023-02-08T07:38:02.436Z,-7.00
2023-02-08T07:39:05.210Z,-7.18
2023-02-08T07:40:08.509Z,-7.25
2023-02-08T07:41:13.434Z,-7.17
2023-02-08T07:42:16.004Z,-6.86
2023-02-08T07:43:18.519Z,-6.55
2023-02-08T07:44:21.480Z,-6.06
2023-02-08T07:45:24.204Z,-5.97
2023-02-08T07:46:26.930Z,-5.79
2023-02-08T07:47:31.970Z,-5.69
2023-02-08T07:48:34.080Z,-5.38
2023-02-08T07:49:36.908Z,-5.09
2023-02-08T07:50:38.667Z,-5.62
2023-02-08T07:51:41.396Z,-5.56
2023-02-08T07:52:45.849Z,-5.97
2023-02-08T07:53:48.473Z,-5.74
2023-02-08T07:54:51.008Z,-5.60
2023-02-08T07:55:53.529Z,-5.34
2023-02-08T07:56:55.561Z,-5.32
2023-02-08T07:57:58.664Z,-5.24
2023-02-08T07:59:00.258Z,-5.44
2023-02-08T08:00:05.808Z,-5.27
2023-02-08T08:01:21.297Z,-5.34
2023-02-08T08:02:24.882Z,-5.68
2023-02-08T08:03:27.560Z,-5.54
2023-02-08T08:04:30.110Z,-5.37
2023-02-08T08:05:33.787Z,-5.41
2023-02-08T08:06:36.448Z,-5.54
2023-02-08T08:07:39.092Z,-5.49
2023-02-08T08:08:42.384Z,-5.27
2023-02-08T08:09:43.975Z,-5.05
2023-02-08T08:10:46.535Z,-4.77
2023-02-08T08:11:49.128Z,-4.77
2023-02-08T08:12:51.656Z,-4.90
2023-02-08T08:13:54.524Z,-4.82
2023-02-08T08:14:57.114Z,-4.52
2023-02-08T08:16:01.112Z,-4.69
2023-02-08T08:17:03.583Z,-4.49
2023-02-08T08:18:06.171Z,-4.41
2023-02-08T08:19:08.697Z,-4.51
2023-02-08T08:20:11.312Z,-4.77
2023-02-08T08:21:15.330Z,-5.07
2023-02-08T08:22:21.055Z,-5.74
2023-02-08T08:23:23.885Z,-5.88
2023-02-08T08:24:27.002Z,-5.76
2023-02-08T08:25:28.733Z,-5.44
2023-02-08T08:26:31.371Z,-5.40
2023-02-08T08:27:33.052Z,-5.21
2023-02-08T08:28:35.702Z,-5.15
2023-02-08T08:29:38.234Z,-4.84
2023-02-08T08:30:44.030Z,-4.62
2023-02-08T08:31:48.270Z,-4.47
2023-02-08T08:32:49.829Z,-4.57
2023-02-08T08:33:52.607Z,-4.37
2023-02-08T08:34:56.659Z,-4.41
2023-02-08T08:35:59.219Z,-4.42
2023-02-08T08:37:03.032Z,-4.18
2023-02-08T08:38:05.611Z,-3.98
2023-02-08T08:39:08.169Z,-3.87
2023-02-08T08:40:11.613Z,-3.94
2023-02-08T08:41:17.080Z,-4.12
2023-02-08T08:42:21.032Z,-4.03
2023-02-08T08:43:23.765Z,-3.90
2023-02-08T08:44:28.320Z,-3.71
2023-02-08T08:45:30.107Z,-3.60
2023-02-08T08:46:32.729Z,-3.87
2023-02-08T08:47:36.696Z,-3.81
2023-02-08T08:48:39.700Z,-4.04
2023-02-08T08:49:42.849Z,-3.98
2023-02-08T08:50:44.528Z,-3.74
2023-02-08T08:51:47.461Z,-3.59
2023-02-08T08:52:50.174Z,-3.47
2023-02-08T08:53:52.965Z,-3.92
2023-02-08T08:54:54.572Z,-3.93
2023-02-08T08:55:57.200Z,-3.72
2023-02-08T08:57:04.226Z,-3.91
2023-02-08T08:58:06.853Z,-4.49
2023-02-08T08:59:11.753Z,-5.08
2023-02-08T09:00:15.579Z,-4.54
2023-02-08T09:01:18.415Z,-4.34
2023-02-08T09:02:21.034Z,-4.27
2023-02-08T09:03:25.010Z,-3.99
2023-02-08T09:04:28.110Z,-3.73
2023-02-08T09:05:30.962Z,-4.05
2023-02-08T09:06:33.729Z,-3.79
2023-02-08T09:07:35.603Z,-3.53
2023-02-08T09:08:38.330Z,-3.69
2023-02-08T09:09:41.825Z,-4.02
2023-02-08T09:10:46.941Z,-4.54
2023-02-08T09:11:50.784Z,-4.91
2023-02-08T09:12:54.013Z,-4.78
2023-02-08T09:13:56.367Z,-4.80
2023-02-08T09:14:59.139Z,-4.74
2023-02-08T09:16:06.156Z,-4.49
2023-02-08T09:17:09.110Z,-3.97
2023-02-08T09:18:11.710Z,-4.19
2023-02-08T09:19:16.595Z,-3.98
2023-02-08T09:20:19.524Z,-4.04
2023-02-08T09:21:25.348Z,-4.50
2023-02-08T09:22:29.242Z,-4.19
2023-02-08T09:23:33.628Z,-4.16
2023-02-08T09:24:36.777Z,-4.53
2023-02-08T09:25:41.472Z,-4.29
2023-02-08T09:26:46.900Z,-4.44
2023-02-08T09:27:49.826Z,-4.32
2023-02-08T09:28:52.509Z,-4.21
2023-02-08T09:29:56.717Z,-4.17
2023-02-08T09:31:11.912Z,-3.67
2023-02-08T09:32:24.623Z,-3.26
2023-02-08T09:33:27.579Z,-2.90
2023-02-08T09:34:33.835Z,-2.69
2023-02-08T09:35:35.702Z,-2.43
2023-02-08T09:36:43.509Z,-2.76
2023-02-08T09:37:46.272Z,-3.07
2023-02-08T09:38:51.702Z,-3.12
2023-02-08T09:39:54.446Z,-3.15
2023-02-08T09:41:10.980Z,-3.20
2023-02-08T09:42:23.815Z,-2.95
2023-02-08T09:43:35.583Z,-2.31
2023-02-08T09:44:48.346Z,-2.21
2023-02-08T09:46:00.175Z,-2.18
2023-02-08T09:47:11.158Z,-1.96
2023-02-08T09:48:22.808Z,-2.08
2023-02-08T09:49:29.681Z,-1.91
2023-02-08T09:50:41.161Z,-2.28
2023-02-08T09:51:48.655Z,-2.34
2023-02-08T09:52:59.232Z,-1.95
2023-02-08T09:54:07.212Z,-1.99
2023-02-08T09:55:31.092Z,-1.77
2023-02-08T09:56:40.439Z,-1.55
2023-02-08T09:57:46.814Z,-1.42
2023-02-08T09:58:52.853Z,-1.16
2023-02-08T09:59:59.265Z,-1.10
2023-02-08T10:01:05.933Z,-0.78
2023-02-08T10:02:19.502Z,-0.76
2023-02-08T10:03:34.834Z,-0.57
2023-02-08T10:04:45.798Z,-0.47
2023-02-08T10:05:51.129Z,-0.66
2023-02-08T10:06:53.885Z,-0.67
2023-02-08T10:07:56.582Z,-0.42
2023-02-08T10:09:03.162Z,-0.31
2023-02-08T10:10:08.142Z,-0.53
2023-02-08T10:11:28.351Z,-1.36
2023-02-08T10:12:44.107Z,-1.48
2023-02-08T10:14:05.386Z,-1.38
2023-02-08T10:15:23.102Z,-1.24
2023-02-08T10:16:43.828Z,-1.30
2023-02-08T10:18:02.466Z,-0.88
2023-02-08T10:19:15.794Z,-0.51
2023-02-08T10:20:34.443Z,-0.77
2023-02-08T10:21:53.539Z,-0.39
2023-02-08T10:23:05.142Z,-0.01
2023-02-08T10:24:35.280Z,0.39
2023-02-08T10:26:07.895Z,0.85
2023-02-08T10:27:17.300Z,0.86
2023-02-08T10:28:50.856Z,0.93
2023-02-08T10:30:07.267Z,1.06
2023-02-08T10:31:21.159Z,1.31
2023-02-08T10:32:40.995Z,1.80
2023-02-08T10:33:51.548Z,2.32
2023-02-08T10:34:59.109Z,2.86
2023-02-08T10:36:01.939Z,3.69
2023-02-08T10:37:15.499Z,3.90
2023-02-08T10:38:25.404Z,4.67
2023-02-08T10:39:31.903Z,5.79
2023-02-08T10:40:39.489Z,6.63
2023-02-08T10:41:42.715Z,7.48
2023-02-08T10:42:53.113Z,8.09
2023-02-08T10:44:04.014Z,8.28
2023-02-08T10:45:23.967Z,8.34
2023-02-08T10:46:36.791Z,8.80
2023-02-08T10:47:45.875Z,8.78
2023-02-08T10:49:01.668Z,9.44
2023-02-08T10:50:07.700Z,9.67
2023-02-08T10:51:13.719Z,10.08
2023-02-08T10:52:18.332Z,10.55
2023-02-08T10:53:21.880Z,10.87
2023-02-08T10:54:24.712Z,11.45
2023-02-08T10:55:28.056Z,11.35
2023-02-08T10:56:41.022Z,11.46
2023-02-08T10:57:48.407Z,12.14
2023-02-08T10:58:51.284Z,12.90
2023-02-08T10:59:58.858Z,12.16
2023-02-08T11:01:01.597Z,12.19
2023-02-08T11:02:18.935Z,13.05
2023-02-08T11:03:24.349Z,13.48
2023-02-08T11:04:27.318Z,13.61
2023-02-08T11:05:35.389Z,12.36
2023-02-08T11:06:41.340Z,12.76
2023-02-08T11:07:46.307Z,13.41
2023-02-08T11:08:56.284Z,13.32
2023-02-08T11:10:22.480Z,11.59
2023-02-08T11:11:27.019Z,12.14
2023-02-08T11:12:32.031Z,9.99
2023-02-08T11:13:43.526Z,8.34
2023-02-08T11:14:54.074Z,8.63
2023-02-08T11:15:59.193Z,9.11
2023-02-08T11:17:05.375Z,8.87
2023-02-08T11:18:18.555Z,10.25
2023-02-08T11:19:30.513Z,10.41
2023-02-08T11:20:36.847Z,10.69
2023-02-08T11:21:42.442Z,12.22
2023-02-08T11:22:47.823Z,12.57
2023-02-08T11:23:53.705Z,13.36
2023-02-08T11:24:59.183Z,12.30
2023-02-08T11:26:18.899Z,11.71
2023-02-08T11:27:33.477Z,12.30
2023-02-08T11:28:36.478Z,13.76
2023-02-08T11:29:39.228Z,14.38
2023-02-08T11:30:43.337Z,15.14
2023-02-08T11:32:03.516Z,15.91
2023-02-08T11:33:24.247Z,16.84
2023-02-08T11:34:28.891Z,16.72
2023-02-08T11:35:33.885Z,12.94
2023-02-08T11:36:38.541Z,12.83
2023-02-08T11:37:49.452Z,11.23
2023-02-08T11:38:54.561Z,8.21
2023-02-08T11:39:59.064Z,8.85
2023-02-08T11:41:15.835Z,11.19
2023-02-08T11:42:22.214Z,13.24
2023-02-08T11:43:27.331Z,14.59
2023-02-08T11:44:33.015Z,11.16
2023-02-08T11:45:41.414Z,9.99
2023-02-08T11:46:49.261Z,11.44
2023-02-08T11:47:53.200Z,11.49
2023-02-08T11:48:57.352Z,10.81
2023-02-08T11:50:04.843Z,10.21
2023-02-08T11:51:08.510Z,9.40
2023-02-08T11:52:26.780Z,7.75
2023-02-08T11:53:37.923Z,6.61
2023-02-08T11:54:43.183Z,6.09
2023-02-08T11:55:46.305Z,6.51
2023-02-08T11:57:02.939Z,7.00
2023-02-08T11:58:18.945Z,7.10
2023-02-08T11:59:27.922Z,7.02
2023-02-08T12:00:39.314Z,5.46
2023-02-08T12:01:43.629Z,5.47
2023-02-08T12:02:46.992Z,6.14
2023-02-08T12:03:51.542Z,6.35
2023-02-08T12:04:54.282Z,6.32
2023-02-08T12:06:10.681Z,7.03
2023-02-08T12:07:25.710Z,7.44
2023-02-08T12:08:40.528Z,8.01
2023-02-08T12:10:10.097Z,8.42
2023-02-08T12:11:23.816Z,8.41
2023-02-08T12:12:37.192Z,7.70
2023-02-08T12:14:09.607Z,9.89
2023-02-08T12:15:24.008Z,10.42
2023-02-08T12:16:44.432Z,10.29
2023-02-08T12:18:06.094Z,10.83
2023-02-08T12:19:41.188Z,10.25
2023-02-08T12:20:47.141Z,8.96
2023-02-08T12:21:56.767Z,9.66
2023-02-08T12:23:15.357Z,10.46
2023-02-08T12:24:28.209Z,9.52
2023-02-08T12:25:43.727Z,9.48
2023-02-08T12:27:06.912Z,10.21
2023-02-08T12:28:21.564Z,8.07
2023-02-08T12:29:48.524Z,8.17
2023-02-08T12:31:00.694Z,7.51
2023-02-08T12:32:21.299Z,6.84
2023-02-08T12:33:36.909Z,6.60
2023-02-08T12:35:01.310Z,6.99
2023-02-08T12:36:13.276Z,7.69
2023-02-08T12:37:48.146Z,9.37
2023-02-08T12:39:35.890Z,8.89
2023-02-08T12:40:52.766Z,8.33
2023-02-08T12:42:09.827Z,9.44
2023-02-08T12:43:25.221Z,9.23
2023-02-08T12:44:34.642Z,8.41
2023-02-08T12:46:04.829Z,5.73
2023-02-08T12:47:24.328Z,6.69
2023-02-08T12:48:46.362Z,7.08
2023-02-08T12:50:02.017Z,6.70
2023-02-08T12:51:13.930Z,7.82
2023-02-08T12:52:28.326Z,7.55
2023-02-08T12:53:34.986Z,6.22
2023-02-08T12:54:42.573Z,6.41
2023-02-08T12:55:51.360Z,6.07
2023-02-08T12:57:01.993Z,6.22
2023-02-08T12:58:23.290Z,6.39
2023-02-08T12:59:29.782Z,6.44
2023-02-08T13:00:38.783Z,6.56
2023-02-08T13:01:45.714Z,7.98
2023-02-08T13:02:57.769Z,6.79
2023-02-08T13:04:07.431Z,6.62
2023-02-08T13:05:17.347Z,7.55
2023-02-08T13:06:25.798Z,8.45
2023-02-08T13:07:33.599Z,9.42
2023-02-08T13:08:44.391Z,9.47
2023-02-08T13:09:49.448Z,10.23
2023-02-08T13:11:10.729Z,9.93
2023-02-08T13:12:27.170Z,10.17
2023-02-08T13:13:34.013Z,10.28
2023-02-08T13:14:44.765Z,9.10
2023-02-08T13:15:50.796Z,8.50
2023-02-08T13:16:59.741Z,8.98
2023-02-08T13:18:12.320Z,9.75
2023-02-08T13:19:30.033Z,7.88
2023-02-08T13:20:42.451Z,9.04
2023-02-08T13:21:45.920Z,8.58
2023-02-08T13:22:50.090Z,8.19
2023-02-08T13:23:53.752Z,7.82
2023-02-08T13:25:07.121Z,7.34
2023-02-08T13:26:16.707Z,8.02
2023-02-08T13:27:22.219Z,7.27
2023-02-08T13:28:30.327Z,6.79
2023-02-08T13:29:33.852Z,7.43
2023-02-08T13:30:40.267Z,8.34
2023-02-08T13:31:46.379Z,8.27
2023-02-08T13:32:52.492Z,7.25
2023-02-08T13:34:02.150Z,6.94
2023-02-08T13:35:09.190Z,7.78
2023-02-08T13:36:22.524Z,8.14
2023-02-08T13:37:31.448Z,9.31
2023-02-08T13:38:36.524Z,10.32
2023-02-08T13:39:42.380Z,10.65
2023-02-08T13:40:46.463Z,9.82
2023-02-08T13:41:55.183Z,8.97
2023-02-08T13:43:02.462Z,7.34
2023-02-08T13:44:07.090Z,6.64
2023-02-08T13:45:11.013Z,7.66
2023-02-08T13:46:14.453Z,8.10
2023-02-08T13:47:28.732Z,8.20
2023-02-08T13:48:44.370Z,9.45
2023-02-08T13:49:59.942Z,7.81
2023-02-08T13:51:03.329Z,6.76
2023-02-08T13:52:06.252Z,6.98
2023-02-08T13:53:08.995Z,7.20
2023-02-08T13:54:14.429Z,6.99
2023-02-08T13:55:44.241Z,7.81
2023-02-08T13:56:49.478Z,9.80
2023-02-08T13:57:55.908Z,9.63
2023-02-08T13:59:01.521Z,7.05
2023-02-08T14:00:25.493Z,6.91
2023-02-08T14:01:30.470Z,6.74
2023-02-08T14:02:33.240Z,7.82
2023-02-08T14:03:35.491Z,7.48
2023-02-08T14:04:39.598Z,7.77
2023-02-08T14:05:49.096Z,8.40
2023-02-08T14:06:56.333Z,8.52
2023-02-08T14:08:00.631Z,7.76
2023-02-08T14:09:11.971Z,8.32
2023-02-08T14:10:37.462Z,8.54
2023-02-08T14:11:46.365Z,8.01
2023-02-08T14:12:59.483Z,6.44
2023-02-08T14:14:05.104Z,7.93
2023-02-08T14:15:36.733Z,8.91
2023-02-08T14:16:40.824Z,9.84
2023-02-08T14:17:43.566Z,9.14
2023-02-08T14:18:53.197Z,9.44
2023-02-08T14:20:00.527Z,9.31
2023-02-08T14:21:05.807Z,8.58
2023-02-08T14:22:18.725Z,8.20
2023-02-08T14:23:25.458Z,7.95